sensor_id;sensor_type;location;lat;lon;timestamp;pressure;altitude;pressure_sealevel;temperature;humidity
51195;BME280;37259;49.972;19.850;2023-02-28T00:00:41;99970;;;0;73
51195;BME280;37259;49.972;19.850;2023-02-28T00:01:41;99970;;;0;73
51195;BME280;37259;49.972;19.850;2023-02-28T00:02:42;99980;;;0;73.1
51195;BME280;37259;49.972;19.850;2023-02-28T00:03:41;99980;;;0;73.1
51195;BME280;37259;49.972;19.850;2023-02-28T00:04:41;99970;;;0;73.2
51195;BME280;37259;49.972;19.850;2023-02-28T00:05:41;99970;;;0;73.2
51195;BME280;37259;49.972;19.850;2023-02-28T00:06:41;99980;;;0;73.2
51195;BME280;37259;49.972;19.850;2023-02-28T00:07:41;99980;;;0;73.1
51195;BME280;37259;49.972;19.850;2023-02-28T00:08:41;99980;;;0;73.1
51195;BME280;37259;49.972;19.850;2023-02-28T00:09:41;99980;;;0;73.1
51195;BME280;37259;49.972;19.850;2023-02-28T00:10:41;99980;;;0;73.1
51195;BME280;37259;49.972;19.850;2023-02-28T00:11:41;99980;;;0;73
51195;BME280;37259;49.972;19.850;2023-02-28T00:12:41;99980;;;0;73
51195;BME280;37259;49.972;19.850;2023-02-28T00:13:42;99980;;;0;73
51195;BME280;37259;49.972;19.850;2023-02-28T00:14:41;99980;;;0;73
51195;BME280;37259;49.972;19.850;2023-02-28T00:15:41;99980;;;0;73
51195;BME280;37259;49.972;19.850;2023-02-28T00:16:41;99990;;;-0.1;73.1
51195;BME280;37259;49.972;19.850;2023-02-28T00:17:41;99990;;;-0.1;73.1
51195;BME280;37259;49.972;19.850;2023-02-28T00:18:41;99990;;;-0.1;73.1
51195;BME280;37259;49.972;19.850;2023-02-28T00:19:41;99990;;;-0.1;73.1
51195;BME280;37259;49.972;19.850;2023-02-28T00:20:41;99990;;;-0.1;73.1
51195;BME280;37259;49.972;19.850;2023-02-28T00:21:41;99990;;;-0.1;73.1
51195;BME280;37259;49.972;19.850;2023-02-28T00:22:42;99990;;;-0.1;73.1
51195;BME280;37259;49.972;19.850;2023-02-28T00:23:41;99990;;;-0.1;73.3
51195;BME280;37259;49.972;19.850;2023-02-28T00:24:41;99990;;;-0.1;73.3
51195;BME280;37259;49.972;19.850;2023-02-28T00:25:41;99990;;;-0.1;73.4
51195;BME280;37259;49.972;19.850;2023-02-28T00:26:41;99990;;;-0.1;73.3
51195;BME280;37259;49.972;19.850;2023-02-28T00:27:41;99990;;;-0.1;73.3
51195;BME280;37259;49.972;19.850;2023-02-28T00:28:41;99990;;;-0.1;73.3
51195;BME280;37259;49.972;19.850;2023-02-28T00:29:41;99990;;;-0.1;73.3
51195;BME280;37259;49.972;19.850;2023-02-28T00:30:41;99990;;;-0.1;73.3
51195;BME280;37259;49.972;19.850;2023-02-28T00:31:41;100000;;;-0.1;73.3
51195;BME280;37259;49.972;19.850;2023-02-28T00:32:41;100000;;;-0.1;73.3
51195;BME280;37259;49.972;19.850;2023-02-28T00:33:41;100000;;;-0.1;73.3
51195;BME280;37259;49.972;19.850;2023-02-28T00:34:41;100000;;;-0.2;73.4
51195;BME280;37259;49.972;19.850;2023-02-28T00:35:41;100000;;;-0.2;73.4
51195;BME280;37259;49.972;19.850;2023-02-28T00:36:41;100000;;;-0.2;73.7
51195;BME280;37259;49.972;19.850;2023-02-28T00:37:41;100000;;;-0.2;73.7
51195;BME280;37259;49.972;19.850;2023-02-28T00:38:41;100000;;;-0.2;73.7
51195;BME280;37259;49.972;19.850;2023-02-28T00:39:41;100000;;;-0.2;73.6
51195;BME280;37259;49.972;19.850;2023-02-28T00:40:41;100000;;;-0.2;73.6
51195;BME280;37259;49.972;19.850;2023-02-28T00:41:41;100000;;;-0.2;73.6
51195;BME280;37259;49.972;19.850;2023-02-28T00:42:41;100000;;;-0.2;73.6
51195;BME280;37259;49.972;19.850;2023-02-28T00:43:41;100000;;;-0.2;73.6
51195;BME280;37259;49.972;19.850;2023-02-28T00:44:41;100000;;;-0.2;73.5
51195;BME280;37259;49.972;19.850;2023-02-28T00:45:41;100000;;;-0.2;73.5
51195;BME280;37259;49.972;19.850;2023-02-28T00:46:41;99990;;;-0.2;73.4
51195;BME280;37259;49.972;19.850;2023-02-28T00:47:41;99990;;;-0.2;73.4
51195;BME280;37259;49.972;19.850;2023-02-28T00:48:41;99990;;;-0.2;73.4
51195;BME280;37259;49.972;19.850;2023-02-28T00:49:41;99990;;;-0.2;73.4
51195;BME280;37259;49.972;19.850;2023-02-28T00:50:41;99990;;;-0.2;73.4
51195;BME280;37259;49.972;19.850;2023-02-28T00:51:41;100000;;;-0.3;73.4
51195;BME280;37259;49.972;19.850;2023-02-28T00:52:41;100000;;;-0.3;73.4
51195;BME280;37259;49.972;19.850;2023-02-28T00:53:41;99990;;;-0.4;73.2
51195;BME280;37259;49.972;19.850;2023-02-28T00:54:41;99990;;;-0.4;73.2
51195;BME280;37259;49.972;19.850;2023-02-28T00:55:41;99990;;;-0.4;73.2
51195;BME280;37259;49.972;19.850;2023-02-28T00:56:41;99990;;;-0.4;73.2
51195;BME280;37259;49.972;19.850;2023-02-28T00:57:41;99990;;;-0.4;73.2
51195;BME280;37259;49.972;19.850;2023-02-28T00:58:41;99990;;;-0.4;73.2
51195;BME280;37259;49.972;19.850;2023-02-28T00:59:41;99990;;;-0.4;73.1
51195;BME280;37259;49.972;19.850;2023-02-28T01:00:41;99990;;;-0.4;73.1
51195;BME280;37259;49.972;19.850;2023-02-28T01:01:41;99990;;;-0.4;73.1
51195;BME280;37259;49.972;19.850;2023-02-28T01:02:41;99990;;;-0.4;73.1
51195;BME280;37259;49.972;19.850;2023-02-28T01:03:41;99990;;;-0.4;73
51195;BME280;37259;49.972;19.850;2023-02-28T01:04:41;99990;;;-0.4;73
51195;BME280;37259;49.972;19.850;2023-02-28T01:05:41;99990;;;-0.4;73.1
51195;BME280;37259;49.972;19.850;2023-02-28T01:06:41;99990;;;-0.4;73.1
51195;BME280;37259;49.972;19.850;2023-02-28T01:07:41;99990;;;-0.4;73.1
51195;BME280;37259;49.972;19.850;2023-02-28T01:08:41;99980;;;-0.4;73
51195;BME280;37259;49.972;19.850;2023-02-28T01:09:41;99990;;;-0.5;73
51195;BME280;37259;49.972;19.850;2023-02-28T01:10:41;99990;;;-0.5;73
51195;BME280;37259;49.972;19.850;2023-02-28T01:11:41;99990;;;-0.5;73
51195;BME280;37259;49.972;19.850;2023-02-28T01:12:41;99990;;;-0.5;73
51195;BME280;37259;49.972;19.850;2023-02-28T01:13:41;99990;;;-0.5;73.1
51195;BME280;37259;49.972;19.850;2023-02-28T01:14:41;99990;;;-0.5;73.1
51195;BME280;37259;49.972;19.850;2023-02-28T01:15:43;99990;;;-0.6;73.1
51195;BME280;37259;49.972;19.850;2023-02-28T01:16:41;99990;;;-0.6;73.2
51195;BME280;37259;49.972;19.850;2023-02-28T01:17:41;99990;;;-0.6;73.3
51195;BME280;37259;49.972;19.850;2023-02-28T01:18:41;99990;;;-0.6;73.3
51195;BME280;37259;49.972;19.850;2023-02-28T01:19:41;99990;;;-0.6;73.3
51195;BME280;37259;49.972;19.850;2023-02-28T01:20:41;99990;;;-0.6;73.3
51195;BME280;37259;49.972;19.850;2023-02-28T01:21:41;99990;;;-0.6;73.3
51195;BME280;37259;49.972;19.850;2023-02-28T01:22:41;99990;;;-0.6;73.3
51195;BME280;37259;49.972;19.850;2023-02-28T01:23:41;99990;;;-0.6;73.4
51195;BME280;37259;49.972;19.850;2023-02-28T01:24:41;99990;;;-0.6;73.4
51195;BME280;37259;49.972;19.850;2023-02-28T01:25:41;99990;;;-0.6;73.4
51195;BME280;37259;49.972;19.850;2023-02-28T01:26:41;100000;;;-0.6;73.4
51195;BME280;37259;49.972;19.850;2023-02-28T01:27:41;100000;;;-0.6;73.4
51195;BME280;37259;49.972;19.850;2023-02-28T01:28:41;99990;;;-0.6;73.5
51195;BME280;37259;49.972;19.850;2023-02-28T01:29:41;99990;;;-0.6;73.5
51195;BME280;37259;49.972;19.850;2023-02-28T01:30:41;99990;;;-0.6;73.6
51195;BME280;37259;49.972;19.850;2023-02-28T01:31:41;99990;;;-0.6;73.6
51195;BME280;37259;49.972;19.850;2023-02-28T01:32:41;99990;;;-0.6;73.6
51195;BME280;37259;49.972;19.850;2023-02-28T01:33:41;99990;;;-0.6;73.6
51195;BME280;37259;49.972;19.850;2023-02-28T01:34:41;99990;;;-0.6;73.6
51195;BME280;37259;49.972;19.850;2023-02-28T01:35:41;99990;;;-0.6;73.6
51195;BME280;37259;49.972;19.850;2023-02-28T01:36:41;99990;;;-0.7;73.6
51195;BME280;37259;49.972;19.850;2023-02-28T01:37:41;99990;;;-0.7;73.6
51195;BME280;37259;49.972;19.850;2023-02-28T01:38:41;99990;;;-0.7;73.6
51195;BME280;37259;49.972;19.850;2023-02-28T01:39:41;99980;;;-0.7;73.6
51195;BME280;37259;49.972;19.850;2023-02-28T01:40:41;99980;;;-0.7;73.6
51195;BME280;37259;49.972;19.850;2023-02-28T01:41:41;99980;;;-0.7;73.5
51195;BME280;37259;49.972;19.850;2023-02-28T01:42:41;99980;;;-0.7;73.5
51195;BME280;37259;49.972;19.850;2023-02-28T01:43:58;99980;;;-0.8;73.5
51195;BME280;37259;49.972;19.850;2023-02-28T01:44:58;99990;;;-0.8;73.5
51195;BME280;37259;49.972;19.850;2023-02-28T01:45:41;99980;;;-0.8;73.5
51195;BME280;37259;49.972;19.850;2023-02-28T01:46:41;99980;;;-0.9;73.6
51195;BME280;37259;49.972;19.850;2023-02-28T01:47:41;99980;;;-0.9;73.6
51195;BME280;37259;49.972;19.850;2023-02-28T01:48:42;99980;;;-0.9;73.7
51195;BME280;37259;49.972;19.850;2023-02-28T01:49:41;99980;;;-0.9;73.7
51195;BME280;37259;49.972;19.850;2023-02-28T01:50:43;99980;;;-1;73.9
51195;BME280;37259;49.972;19.850;2023-02-28T01:51:44;99980;;;-1;73.9
51195;BME280;37259;49.972;19.850;2023-02-28T01:52:41;99970;;;-1;73.9
51195;BME280;37259;49.972;19.850;2023-02-28T01:53:42;99980;;;-1;73.9
51195;BME280;37259;49.972;19.850;2023-02-28T01:54:41;99980;;;-1;73.9
51195;BME280;37259;49.972;19.850;2023-02-28T01:55:41;99970;;;-1.1;73.9
51195;BME280;37259;49.972;19.850;2023-02-28T01:56:42;99970;;;-1.1;73.9
51195;BME280;37259;49.972;19.850;2023-02-28T01:57:42;99980;;;-1.2;73.8
51195;BME280;37259;49.972;19.850;2023-02-28T01:58:41;99980;;;-1.2;73.8
51195;BME280;37259;49.972;19.850;2023-02-28T01:59:42;99980;;;-1.2;73.8
51195;BME280;37259;49.972;19.850;2023-02-28T02:00:41;99980;;;-1.2;73.7
51195;BME280;37259;49.972;19.850;2023-02-28T02:01:41;99980;;;-1.3;73.7
51195;BME280;37259;49.972;19.850;2023-02-28T02:02:42;99980;;;-1.3;73.7
51195;BME280;37259;49.972;19.850;2023-02-28T02:03:41;99980;;;-1.3;73.8
51195;BME280;37259;49.972;19.850;2023-02-28T02:04:44;99980;;;-1.3;73.8
51195;BME280;37259;49.972;19.850;2023-02-28T02:05:41;99980;;;-1.4;73.8
51195;BME280;37259;49.972;19.850;2023-02-28T02:06:42;99980;;;-1.4;73.8
51195;BME280;37259;49.972;19.850;2023-02-28T02:07:42;99980;;;-1.5;74
51195;BME280;37259;49.972;19.850;2023-02-28T02:08:41;99980;;;-1.5;74.1
51195;BME280;37259;49.972;19.850;2023-02-28T02:09:41;99980;;;-1.5;74.1
51195;BME280;37259;49.972;19.850;2023-02-28T02:10:42;99980;;;-1.5;74.3
51195;BME280;37259;49.972;19.850;2023-02-28T02:11:42;99980;;;-1.5;74.3
51195;BME280;37259;49.972;19.850;2023-02-28T02:12:46;99980;;;-1.6;74.3
51195;BME280;37259;49.972;19.850;2023-02-28T02:13:45;99980;;;-1.6;74.3
51195;BME280;37259;49.972;19.850;2023-02-28T02:14:43;99980;;;-1.6;74.3
51195;BME280;37259;49.972;19.850;2023-02-28T02:15:42;99980;;;-1.6;74.3
51195;BME280;37259;49.972;19.850;2023-02-28T02:16:45;99980;;;-1.7;74.5
51195;BME280;37259;49.972;19.850;2023-02-28T02:17:42;99980;;;-1.7;74.5
51195;BME280;37259;49.972;19.850;2023-02-28T02:18:43;99980;;;-1.7;74.5
51195;BME280;37259;49.972;19.850;2023-02-28T02:20:04;99970;;;-1.7;74.6
51195;BME280;37259;49.972;19.850;2023-02-28T02:20:46;99970;;;-1.7;74.6
51195;BME280;37259;49.972;19.850;2023-02-28T02:21:47;99970;;;-1.8;74.7
51195;BME280;37259;49.972;19.850;2023-02-28T02:23:49;99970;;;-1.8;74.7
51195;BME280;37259;49.972;19.850;2023-02-28T02:24:47;99970;;;-1.8;74.7
51195;BME280;37259;49.972;19.850;2023-02-28T02:25:41;99970;;;-1.8;74.6
51195;BME280;37259;49.972;19.850;2023-02-28T02:26:44;99970;;;-1.8;74.6
51195;BME280;37259;49.972;19.850;2023-02-28T02:27:47;99970;;;-1.8;74.6
51195;BME280;37259;49.972;19.850;2023-02-28T02:28:46;99970;;;-1.8;74.6
51195;BME280;37259;49.972;19.850;2023-02-28T02:29:45;99970;;;-1.8;74.5
51195;BME280;37259;49.972;19.850;2023-02-28T02:30:44;99970;;;-1.9;74.5
51195;BME280;37259;49.972;19.850;2023-02-28T02:31:51;99970;;;-1.9;74.4
51195;BME280;37259;49.972;19.850;2023-02-28T02:32:44;99970;;;-1.9;74.4
51195;BME280;37259;49.972;19.850;2023-02-28T02:34:17;99970;;;-1.9;74.4
51195;BME280;37259;49.972;19.850;2023-02-28T02:34:43;99970;;;-1.9;74.4
51195;BME280;37259;49.972;19.850;2023-02-28T02:35:42;99970;;;-1.9;74.4
51195;BME280;37259;49.972;19.850;2023-02-28T02:36:42;99970;;;-2;74.5
51195;BME280;37259;49.972;19.850;2023-02-28T02:37:42;99970;;;-2;74.6
51195;BME280;37259;49.972;19.850;2023-02-28T02:38:42;99970;;;-2;74.6
51195;BME280;37259;49.972;19.850;2023-02-28T02:39:44;99970;;;-2;74.7
51195;BME280;37259;49.972;19.850;2023-02-28T02:40:42;99970;;;-2;74.8
51195;BME280;37259;49.972;19.850;2023-02-28T02:41:43;99970;;;-2;74.8
51195;BME280;37259;49.972;19.850;2023-02-28T02:42:42;99970;;;-2;74.9
51195;BME280;37259;49.972;19.850;2023-02-28T02:43:44;99970;;;-2.1;74.9
51195;BME280;37259;49.972;19.850;2023-02-28T02:44:42;99970;;;-2.1;74.9
51195;BME280;37259;49.972;19.850;2023-02-28T02:45:42;99970;;;-2.1;75.1
51195;BME280;37259;49.972;19.850;2023-02-28T02:46:42;99970;;;-2.1;75.1
51195;BME280;37259;49.972;19.850;2023-02-28T02:47:41;99960;;;-2.1;75.3
51195;BME280;37259;49.972;19.850;2023-02-28T02:48:41;99960;;;-2.1;75.3
51195;BME280;37259;49.972;19.850;2023-02-28T02:49:42;99960;;;-2.2;75.5
51195;BME280;37259;49.972;19.850;2023-02-28T02:50:42;99960;;;-2.2;75.6
51195;BME280;37259;49.972;19.850;2023-02-28T02:51:41;99960;;;-2.2;75.7
51195;BME280;37259;49.972;19.850;2023-02-28T02:52:42;99960;;;-2.2;75.8
51195;BME280;37259;49.972;19.850;2023-02-28T02:53:42;99960;;;-2.2;75.8
51195;BME280;37259;49.972;19.850;2023-02-28T02:54:41;99960;;;-2.2;75.9
51195;BME280;37259;49.972;19.850;2023-02-28T02:55:42;99960;;;-2.3;76
51195;BME280;37259;49.972;19.850;2023-02-28T02:56:42;99960;;;-2.3;76
51195;BME280;37259;49.972;19.850;2023-02-28T02:57:44;99960;;;-2.3;76.2
51195;BME280;37259;49.972;19.850;2023-02-28T02:58:41;99960;;;-2.3;76.3
51195;BME280;37259;49.972;19.850;2023-02-28T02:59:41;99960;;;-2.3;76.3
51195;BME280;37259;49.972;19.850;2023-02-28T03:00:42;99960;;;-2.4;76.4
51195;BME280;37259;49.972;19.850;2023-02-28T03:01:41;99960;;;-2.4;76.5
51195;BME280;37259;49.972;19.850;2023-02-28T03:02:41;99960;;;-2.4;76.5
51195;BME280;37259;49.972;19.850;2023-02-28T03:03:41;99960;;;-2.4;76.6
51195;BME280;37259;49.972;19.850;2023-02-28T03:04:42;99960;;;-2.4;76.8
51195;BME280;37259;49.972;19.850;2023-02-28T03:05:42;99960;;;-2.5;76.9
51195;BME280;37259;49.972;19.850;2023-02-28T03:06:41;99960;;;-2.5;76.9
51195;BME280;37259;49.972;19.850;2023-02-28T03:07:41;99960;;;-2.5;77.4
51195;BME280;37259;49.972;19.850;2023-02-28T03:08:41;99960;;;-2.5;77.4
51195;BME280;37259;49.972;19.850;2023-02-28T03:09:49;99960;;;-2.5;77.4
51195;BME280;37259;49.972;19.850;2023-02-28T03:10:42;99960;;;-2.5;77.5
51195;BME280;37259;49.972;19.850;2023-02-28T03:11:41;99960;;;-2.6;77.9
51195;BME280;37259;49.972;19.850;2023-02-28T03:12:45;99960;;;-2.6;77.9
51195;BME280;37259;49.972;19.850;2023-02-28T03:13:46;99960;;;-2.6;78
51195;BME280;37259;49.972;19.850;2023-02-28T03:14:43;99960;;;-2.6;78
51195;BME280;37259;49.972;19.850;2023-02-28T03:15:44;99960;;;-2.6;78
51195;BME280;37259;49.972;19.850;2023-02-28T03:16:59;99960;;;-2.6;78
51195;BME280;37259;49.972;19.850;2023-02-28T03:17:47;99960;;;-2.6;78.1
51195;BME280;37259;49.972;19.850;2023-02-28T03:18:43;99960;;;-2.6;78.1
51195;BME280;37259;49.972;19.850;2023-02-28T03:19:45;99960;;;-2.7;78
51195;BME280;37259;49.972;19.850;2023-02-28T03:20:44;99960;;;-2.7;78
51195;BME280;37259;49.972;19.850;2023-02-28T03:21:43;99960;;;-2.7;77.9
51195;BME280;37259;49.972;19.850;2023-02-28T03:22:45;99960;;;-2.7;77.9
51195;BME280;37259;49.972;19.850;2023-02-28T03:23:42;99960;;;-2.7;77.9
51195;BME280;37259;49.972;19.850;2023-02-28T03:24:43;99970;;;-2.8;77.9
51195;BME280;37259;49.972;19.850;2023-02-28T03:25:45;99970;;;-2.8;77.9
51195;BME280;37259;49.972;19.850;2023-02-28T03:26:42;99970;;;-2.8;78
51195;BME280;37259;49.972;19.850;2023-02-28T03:27:42;99970;;;-2.8;78
51195;BME280;37259;49.972;19.850;2023-02-28T03:28:42;99970;;;-2.8;78.1
51195;BME280;37259;49.972;19.850;2023-02-28T03:29:42;99970;;;-2.8;78.1
51195;BME280;37259;49.972;19.850;2023-02-28T03:30:42;99970;;;-2.8;78.1
51195;BME280;37259;49.972;19.850;2023-02-28T03:31:43;99970;;;-2.9;78.1
51195;BME280;37259;49.972;19.850;2023-02-28T03:32:42;99970;;;-2.9;78.1
51195;BME280;37259;49.972;19.850;2023-02-28T03:33:42;99980;;;-2.9;78.2
51195;BME280;37259;49.972;19.850;2023-02-28T03:34:42;99980;;;-2.9;78.2
51195;BME280;37259;49.972;19.850;2023-02-28T03:35:42;99970;;;-2.9;78.2
51195;BME280;37259;49.972;19.850;2023-02-28T03:36:43;99970;;;-2.9;78.2
51195;BME280;37259;49.972;19.850;2023-02-28T03:37:41;99980;;;-3;78.3
51195;BME280;37259;49.972;19.850;2023-02-28T03:38:42;99980;;;-3;78.3
51195;BME280;37259;49.972;19.850;2023-02-28T03:39:42;99980;;;-3;78.3
51195;BME280;37259;49.972;19.850;2023-02-28T03:40:42;99980;;;-3;78.3
51195;BME280;37259;49.972;19.850;2023-02-28T03:41:42;99980;;;-3;78.3
51195;BME280;37259;49.972;19.850;2023-02-28T03:42:42;99980;;;-3;78.3
51195;BME280;37259;49.972;19.850;2023-02-28T03:43:42;99980;;;-3.1;78.3
51195;BME280;37259;49.972;19.850;2023-02-28T03:44:42;99980;;;-3.1;78.3
51195;BME280;37259;49.972;19.850;2023-02-28T03:45:41;99980;;;-3.1;78.4
51195;BME280;37259;49.972;19.850;2023-02-28T03:46:42;99980;;;-3.1;78.4
51195;BME280;37259;49.972;19.850;2023-02-28T03:47:43;99980;;;-3.1;78.4
51195;BME280;37259;49.972;19.850;2023-02-28T03:48:42;99980;;;-3.1;78.4
51195;BME280;37259;49.972;19.850;2023-02-28T03:49:42;99980;;;-3.1;78.4
51195;BME280;37259;49.972;19.850;2023-02-28T03:50:42;99980;;;-3.1;78.4
51195;BME280;37259;49.972;19.850;2023-02-28T03:51:41;99990;;;-3.2;78.5
51195;BME280;37259;49.972;19.850;2023-02-28T03:52:42;99990;;;-3.2;78.5
51195;BME280;37259;49.972;19.850;2023-02-28T03:53:42;99990;;;-3.2;78.5
51195;BME280;37259;49.972;19.850;2023-02-28T03:54:42;99990;;;-3.2;78.5
51195;BME280;37259;49.972;19.850;2023-02-28T03:55:42;99990;;;-3.2;78.7
51195;BME280;37259;49.972;19.850;2023-02-28T03:56:42;99990;;;-3.2;78.7
51195;BME280;37259;49.972;19.850;2023-02-28T03:57:43;99990;;;-3.2;78.8
51195;BME280;37259;49.972;19.850;2023-02-28T03:58:42;99990;;;-3.2;78.8
51195;BME280;37259;49.972;19.850;2023-02-28T03:59:42;99990;;;-3.2;78.8
51195;BME280;37259;49.972;19.850;2023-02-28T04:00:43;100000;;;-3.2;79.2
51195;BME280;37259;49.972;19.850;2023-02-28T04:01:42;100000;;;-3.2;79.2
51195;BME280;37259;49.972;19.850;2023-02-28T04:02:41;100000;;;-3.3;79.2
51195;BME280;37259;49.972;19.850;2023-02-28T04:03:41;100000;;;-3.3;79.2
51195;BME280;37259;49.972;19.850;2023-02-28T04:04:41;100000;;;-3.3;79.2
51195;BME280;37259;49.972;19.850;2023-02-28T04:05:50;100000;;;-3.3;79.1
51195;BME280;37259;49.972;19.850;2023-02-28T04:06:41;100000;;;-3.3;79.1
51195;BME280;37259;49.972;19.850;2023-02-28T04:07:41;100000;;;-3.4;79.1
51195;BME280;37259;49.972;19.850;2023-02-28T04:08:42;100000;;;-3.4;79.1
51195;BME280;37259;49.972;19.850;2023-02-28T04:09:41;100000;;;-3.4;79.1
51195;BME280;37259;49.972;19.850;2023-02-28T04:10:41;100000;;;-3.4;79.1
51195;BME280;37259;49.972;19.850;2023-02-28T04:11:42;100000;;;-3.4;79.1
51195;BME280;37259;49.972;19.850;2023-02-28T04:12:41;100000;;;-3.4;79.1
51195;BME280;37259;49.972;19.850;2023-02-28T04:13:41;100000;;;-3.5;79
51195;BME280;37259;49.972;19.850;2023-02-28T04:14:41;100000;;;-3.5;79.3
51195;BME280;37259;49.972;19.850;2023-02-28T04:15:41;100000;;;-3.5;79.3
51195;BME280;37259;49.972;19.850;2023-02-28T04:16:41;100000;;;-3.5;79.5
51195;BME280;37259;49.972;19.850;2023-02-28T04:17:41;100000;;;-3.5;79.7
51195;BME280;37259;49.972;19.850;2023-02-28T04:18:41;100000;;;-3.5;79.7
51195;BME280;37259;49.972;19.850;2023-02-28T04:19:41;100010;;;-3.5;79.8
51195;BME280;37259;49.972;19.850;2023-02-28T04:20:41;100010;;;-3.5;79.8
51195;BME280;37259;49.972;19.850;2023-02-28T04:21:42;100010;;;-3.5;79.8
51195;BME280;37259;49.972;19.850;2023-02-28T04:22:41;100010;;;-3.5;80.3
51195;BME280;37259;49.972;19.850;2023-02-28T04:23:41;100000;;;-3.5;80.3
51195;BME280;37259;49.972;19.850;2023-02-28T04:24:41;100000;;;-3.5;80.4
51195;BME280;37259;49.972;19.850;2023-02-28T04:25:41;100000;;;-3.5;80.4
51195;BME280;37259;49.972;19.850;2023-02-28T04:26:42;100000;;;-3.5;80.4
51195;BME280;37259;49.972;19.850;2023-02-28T04:27:41;100010;;;-3.5;80.5
51195;BME280;37259;49.972;19.850;2023-02-28T04:28:41;100010;;;-3.5;80.5
51195;BME280;37259;49.972;19.850;2023-02-28T04:29:41;100010;;;-3.5;80.5
51195;BME280;37259;49.972;19.850;2023-02-28T04:30:41;100010;;;-3.5;80.8
51195;BME280;37259;49.972;19.850;2023-02-28T04:31:41;100010;;;-3.5;80.8
51195;BME280;37259;49.972;19.850;2023-02-28T04:32:41;100010;;;-3.5;80.8
51195;BME280;37259;49.972;19.850;2023-02-28T04:33:41;100010;;;-3.6;80.8
51195;BME280;37259;49.972;19.850;2023-02-28T04:34:41;100010;;;-3.6;80.8
51195;BME280;37259;49.972;19.850;2023-02-28T04:35:41;100010;;;-3.6;80.9
51195;BME280;37259;49.972;19.850;2023-02-28T04:36:41;100010;;;-3.6;81
51195;BME280;37259;49.972;19.850;2023-02-28T04:37:41;100010;;;-3.6;81
51195;BME280;37259;49.972;19.850;2023-02-28T04:38:41;100010;;;-3.6;81.1
51195;BME280;37259;49.972;19.850;2023-02-28T04:39:41;100010;;;-3.6;81.1
51195;BME280;37259;49.972;19.850;2023-02-28T04:40:41;100010;;;-3.6;81.1
51195;BME280;37259;49.972;19.850;2023-02-28T04:41:41;100010;;;-3.6;81.1
51195;BME280;37259;49.972;19.850;2023-02-28T04:42:41;100010;;;-3.6;81.1
51195;BME280;37259;49.972;19.850;2023-02-28T04:43:41;100010;;;-3.6;81.2
51195;BME280;37259;49.972;19.850;2023-02-28T04:44:41;100010;;;-3.6;81.2
51195;BME280;37259;49.972;19.850;2023-02-28T04:45:42;100020;;;-3.6;81.2
51195;BME280;37259;49.972;19.850;2023-02-28T04:46:41;100010;;;-3.6;81.2
51195;BME280;37259;49.972;19.850;2023-02-28T04:47:41;100010;;;-3.6;81.2
51195;BME280;37259;49.972;19.850;2023-02-28T04:48:41;100010;;;-3.7;81.2
51195;BME280;37259;49.972;19.850;2023-02-28T04:49:41;100020;;;-3.7;81.1
51195;BME280;37259;49.972;19.850;2023-02-28T04:50:41;100020;;;-3.7;81.1
51195;BME280;37259;49.972;19.850;2023-02-28T04:51:41;100020;;;-3.7;81.1
51195;BME280;37259;49.972;19.850;2023-02-28T04:52:41;100020;;;-3.7;81.1
51195;BME280;37259;49.972;19.850;2023-02-28T04:53:42;100020;;;-3.7;81.2
51195;BME280;37259;49.972;19.850;2023-02-28T04:54:41;100020;;;-3.7;81.2
51195;BME280;37259;49.972;19.850;2023-02-28T04:55:41;100020;;;-3.7;81.4
51195;BME280;37259;49.972;19.850;2023-02-28T04:56:41;100020;;;-3.7;81.4
51195;BME280;37259;49.972;19.850;2023-02-28T04:57:41;100020;;;-3.7;81.7
51195;BME280;37259;49.972;19.850;2023-02-28T04:58:41;100020;;;-3.7;81.7
51195;BME280;37259;49.972;19.850;2023-02-28T04:59:41;100020;;;-3.7;81.7
51195;BME280;37259;49.972;19.850;2023-02-28T05:00:41;100020;;;-3.7;81.7
51195;BME280;37259;49.972;19.850;2023-02-28T05:01:45;100020;;;-3.7;81.7
51195;BME280;37259;49.972;19.850;2023-02-28T05:02:41;100020;;;-3.7;81.7
51195;BME280;37259;49.972;19.850;2023-02-28T05:03:41;100020;;;-3.7;81.7
51195;BME280;37259;49.972;19.850;2023-02-28T05:04:41;100020;;;-3.7;81.7
51195;BME280;37259;49.972;19.850;2023-02-28T05:05:41;100020;;;-3.7;81.7
51195;BME280;37259;49.972;19.850;2023-02-28T05:06:42;100020;;;-3.7;81.7
51195;BME280;37259;49.972;19.850;2023-02-28T05:07:41;100020;;;-3.7;81.7
51195;BME280;37259;49.972;19.850;2023-02-28T05:08:41;100020;;;-3.7;81.7
51195;BME280;37259;49.972;19.850;2023-02-28T05:09:41;100020;;;-3.7;81.8
51195;BME280;37259;49.972;19.850;2023-02-28T05:10:41;100020;;;-3.7;81.8
51195;BME280;37259;49.972;19.850;2023-02-28T05:11:41;100020;;;-3.7;81.8
51195;BME280;37259;49.972;19.850;2023-02-28T05:12:41;100020;;;-3.7;81.8
51195;BME280;37259;49.972;19.850;2023-02-28T05:13:41;100020;;;-3.7;81.8
51195;BME280;37259;49.972;19.850;2023-02-28T05:14:41;100020;;;-3.7;81.8
51195;BME280;37259;49.972;19.850;2023-02-28T05:15:41;100020;;;-3.7;81.8
51195;BME280;37259;49.972;19.850;2023-02-28T05:16:41;100020;;;-3.7;81.8
51195;BME280;37259;49.972;19.850;2023-02-28T05:17:41;100020;;;-3.8;81.7
51195;BME280;37259;49.972;19.850;2023-02-28T05:18:41;100020;;;-3.8;81.7
51195;BME280;37259;49.972;19.850;2023-02-28T05:19:41;100020;;;-3.8;81.7
51195;BME280;37259;49.972;19.850;2023-02-28T05:20:41;100020;;;-3.8;81.7
51195;BME280;37259;49.972;19.850;2023-02-28T05:21:41;100030;;;-3.8;81.7
51195;BME280;37259;49.972;19.850;2023-02-28T05:22:41;100030;;;-3.8;81.6
51195;BME280;37259;49.972;19.850;2023-02-28T05:23:41;100020;;;-3.8;81.6
51195;BME280;37259;49.972;19.850;2023-02-28T05:24:41;100030;;;-3.8;81.5
51195;BME280;37259;49.972;19.850;2023-02-28T05:25:41;100030;;;-3.8;81.5
51195;BME280;37259;49.972;19.850;2023-02-28T05:26:42;100030;;;-3.8;81.5
51195;BME280;37259;49.972;19.850;2023-02-28T05:27:41;100030;;;-3.8;81.5
51195;BME280;37259;49.972;19.850;2023-02-28T05:28:41;100030;;;-3.8;81.5
51195;BME280;37259;49.972;19.850;2023-02-28T05:29:41;100030;;;-3.8;81.4
51195;BME280;37259;49.972;19.850;2023-02-28T05:30:41;100030;;;-3.8;81.4
51195;BME280;37259;49.972;19.850;2023-02-28T05:31:41;100030;;;-3.8;81.4
51195;BME280;37259;49.972;19.850;2023-02-28T05:32:41;100030;;;-3.8;81.4
51195;BME280;37259;49.972;19.850;2023-02-28T05:33:41;100030;;;-3.8;81.4
51195;BME280;37259;49.972;19.850;2023-02-28T05:34:41;100040;;;-3.8;81.4
51195;BME280;37259;49.972;19.850;2023-02-28T05:35:41;100040;;;-3.8;81.4
51195;BME280;37259;49.972;19.850;2023-02-28T05:36:42;100040;;;-3.8;81.3